This is the latest recevied weather packets stored in our database for station/object WX4FUN-13. If no packets are shown the sender has not sent any weather packets the latest 10 day(s).
| Time | Temp. | Humidity | Pressure | Rain* | Wind** | Luminosity | Snow |
|---|---|---|---|---|---|---|---|
| 1777651846 | 15.56° C | 41% | 1011.3 hPa | 0 mm | - | 147 W/m² | - |
| 1777651247 | 15.56° C | 40% | 1011.4 hPa | 0 mm | - | 189 W/m² | - |
| 1777650647 | 15.56° C | 44% | 1011.6 hPa | 0 mm | - | 332 W/m² | - |
| 1777650046 | 15° C | 43% | 1011.8 hPa | 0 mm | - | 827 W/m² | - |
| 1777649442 | 15° C | 43% | 1011.9 hPa | 0 mm | - | 427 W/m² | - |
| 1777648843 | 15.56° C | 42% | 1012 hPa | 0 mm | - | 944 W/m² | - |
| 1777648243 | 13.89° C | 43% | 1012.1 hPa | 0 mm | - | 888 W/m² | - |
| 1777647643 | 13.89° C | 45% | 1012.1 hPa | 0 mm | - | 844 W/m² | - |
| 1777647042 | 13.33° C | 47% | 1012.1 hPa | 0 mm | - | 829 W/m² | - |
| 1777646442 | 12.78° C | 51% | 1012.1 hPa | 0 mm | - | 838 W/m² | - |
| 1777645843 | 13.33° C | 49% | 1012.1 hPa | 0 mm | - | 166 W/m² | - |
| 1777645243 | 13.33° C | 45% | 1012.2 hPa | 0 mm | - | 799 W/m² | - |
| 1777644641 | 13.33° C | 47% | 1012.2 hPa | 0 mm | - | 720 W/m² | - |
| 1777644041 | 12.78° C | 51% | 1012.2 hPa | 0 mm | - | 127 W/m² | - |
| 1777643441 | 12.22° C | 53% | 1012.4 hPa | 0 mm | - | 689 W/m² | - |
| 1777642837 | 11.67° C | 56% | 1012.4 hPa | 0 mm | - | 647 W/m² | - |
| 1777642240 | 11.11° C | 61% | 1012.3 hPa | 0 mm | - | 78 W/m² | - |
| 1777641640 | 12.22° C | 58% | 1012.3 hPa | 0 mm | - | 253 W/m² | - |
| 1777641041 | 11.67° C | 58% | 1012.4 hPa | 0 mm | - | 615 W/m² | - |
| 1777640441 | 12.22° C | 56% | 1012.5 hPa | 0 mm | - | 578 W/m² | - |
| 1777639841 | 10.56° C | 64% | 1012.4 hPa | 0 mm | - | 499 W/m² | - |
| 1777639238 | 10.56° C | 62% | 1012.3 hPa | 0 mm | - | 201 W/m² | - |
| 1777638637 | 10° C | 65% | 1012.4 hPa | 0 mm | - | 414 W/m² | - |
| 1777638038 | 8.89° C | 71% | 1012.3 hPa | 0 mm | - | 382 W/m² | - |
| 1777637425 | 9.44° C | 69% | 1012.3 hPa | 0 mm | - | 95 W/m² | - |
* Rain latest hour (hover to see other rain measurements)
** Current wind speed in m/s (hover to see current wind gust speed)